Time;durP1;ratioP1;P1;durP2;ratioP2;P2;SDS_P1;SDS_P2;PMS_P1;PMS_P2;Temp;Humidity;BMP_temperature;BMP_pressure;BME280_temperature;BME280_humidity;BME280_pressure;Samples;Min_cycle;Max_cycle;Signal;HPM_P1;HPM_P2
2023/05/22 00:02:06;;;;;;;15.60;13.95;;;19.70;70.10;;;;;;5094957;28;20044;-65
2023/05/22 00:04:32;;;;;;;23.38;20.92;;;19.70;70.30;;;;;;5094562;28;20046;-65
2023/05/22 00:06:58;;;;;;;21.00;18.23;;;19.70;71.00;;;;;;5094750;28;20130;-65
2023/05/22 00:09:25;;;;;;;15.55;13.15;;;19.70;71.20;;;;;;5077913;28;20452;-65
2023/05/22 00:11:51;;;;;;;24.65;22.10;;;19.70;70.90;;;;;;5094604;28;20395;-65
2023/05/22 00:14:17;;;;;;;23.80;21.25;;;19.70;72.00;;;;;;5094622;28;20125;-65
2023/05/22 00:16:43;;;;;;;18.02;16.15;;;19.70;72.90;;;;;;5094593;28;20102;-66
2023/05/22 00:19:12;;;;;;;14.85;13.15;;;19.70;73.20;;;;;;5077579;28;20044;-66
2023/05/22 00:21:43;;;;;;;13.30;12.00;;;19.70;72.70;;;;;;5094148;28;20051;-66
2023/05/22 00:24:09;;;;;;;12.60;11.13;;;19.70;71.70;;;;;;5093793;28;20036;-66
2023/05/22 00:26:34;;;;;;;19.00;17.00;;;19.70;71.10;;;;;;5094256;28;20050;-65
2023/05/22 00:29:00;;;;;;;27.80;25.02;;;19.60;71.70;;;;;;5060845;28;20044;-66
2023/05/22 00:31:26;;;;;;;27.42;24.35;;;19.60;73.00;;;;;;5077428;28;20051;-67
2023/05/22 00:33:52;;;;;;;18.08;16.00;;;19.70;74.10;;;;;;5094062;28;20127;-66
2023/05/22 00:36:17;;;;;;;15.27;13.77;;;19.60;74.40;;;;;;5094300;28;20052;-66
2023/05/22 00:38:43;;;;;;;14.23;12.63;;;19.60;73.80;;;;;;5095249;28;20040;-66
2023/05/22 00:41:09;;;;;;;15.73;14.13;;;19.60;73.10;;;;;;5093613;28;20487;-66
2023/05/22 00:43:38;;;;;;;17.42;15.35;;;19.60;72.50;;;;;;5093998;28;20123;-65
2023/05/22 00:46:03;;;;;;;26.17;23.50;;;19.60;72.20;;;;;;5077035;28;20054;-66
2023/05/22 00:48:30;;;;;;;28.10;25.08;;;19.60;73.70;;;;;;5093753;28;20043;-65
2023/05/22 00:50:57;;;;;;;16.05;14.35;;;19.50;75.10;;;;;;5093215;28;20040;-66
2023/05/22 00:53:25;;;;;;;18.98;17.02;;;19.50;75.20;;;;;;5076433;28;20044;-66
2023/05/22 00:55:52;;;;;;;14.02;12.32;;;19.50;74.60;;;;;;5092588;28;20036;-65
2023/05/22 00:58:18;;;;;;;13.55;12.15;;;19.40;74.00;;;;;;5093250;28;20039;-66
2023/05/22 01:00:45;;;;;;;19.45;17.65;;;19.40;73.80;;;;;;5093881;28;20044;-66
2023/05/22 01:03:11;;;;;;;22.80;19.77;;;19.40;74.20;;;;;;5077046;28;20434;-66
2023/05/22 01:05:38;;;;;;;15.00;13.48;;;19.40;74.50;;;;;;5076548;28;20399;-66
2023/05/22 01:08:06;;;;;;;14.18;12.73;;;19.30;74.20;;;;;;5093197;28;20090;-65
2023/05/22 01:10:34;;;;;;;23.35;20.90;;;19.30;73.60;;;;;;5093648;28;20126;-66
2023/05/22 01:13:24;;;;;;;23.90;21.52;;;19.30;74.10;;;;;;5093195;28;20115;-66
2023/05/22 01:16:28;;;;;;;23.95;21.50;;;19.30;75.20;;;;;;5093502;28;20487;-66
2023/05/22 01:19:14;;;;;;;27.75;24.52;;;19.30;75.40;;;;;;5022887;28;20149;-65
2023/05/22 01:22:02;;;;;;;21.15;18.73;;;19.20;75.80;;;;;;5093334;28;20075;-65
2023/05/22 01:24:31;;;;;;;23.42;21.02;;;19.20;75.80;;;;;;5093230;28;20063;-65
2023/05/22 01:26:59;;;;;;;23.27;20.88;;;19.20;76.00;;;;;;5093333;28;20047;-65
2023/05/22 01:29:34;;;;;;;15.43;13.85;;;19.20;76.20;;;;;;5092880;28;20123;-66
2023/05/22 01:32:01;;;;;;;23.27;20.85;;;19.10;76.00;;;;;;5093172;28;20093;-65
2023/05/22 01:34:29;;;;;;;26.02;23.52;;;19.00;76.20;;;;;;5093037;28;20093;-65
2023/05/22 01:36:56;;;;;;;26.30;23.60;;;19.00;76.50;;;;;;5092591;28;20048;-65
2023/05/22 01:39:23;;;;;;;25.27;22.77;;;19.00;76.80;;;;;;5092434;28;20055;-65
2023/05/22 01:41:49;;;;;;;26.42;23.63;;;18.90;77.20;;;;;;5093323;28;20360;-66
2023/05/22 01:44:14;;;;;;;26.17;23.45;;;18.90;77.50;;;;;;5092982;28;20047;-65
2023/05/22 01:46:40;;;;;;;26.20;23.52;;;18.80;77.70;;;;;;5092739;28;20040;-66
2023/05/22 01:49:07;;;;;;;24.23;21.73;;;18.70;78.00;;;;;;5092426;28;20036;-65
2023/05/22 01:51:57;;;;;;;24.38;22.00;;;18.70;78.20;;;;;;5076171;28;20153;-66
2023/05/22 01:54:30;;;;;;;22.63;20.33;;;18.60;78.30;;;;;;5092293;28;20509;-65
2023/05/22 01:57:04;;;;;;;27.02;24.08;;;18.60;78.60;;;;;;5074532;28;20048;-66
2023/05/22 01:59:42;;;;;;;26.45;23.58;;;18.50;78.60;;;;;;5092714;28;20055;-65
2023/05/22 02:02:12;;;;;;;19.65;17.75;;;18.50;78.80;;;;;;5091820;28;20119;-66
2023/05/22 02:04:41;;;;;;;16.35;14.75;;;18.50;78.70;;;;;;5092410;28;20514;-66
2023/05/22 02:07:09;;;;;;;14.02;12.52;;;18.40;78.40;;;;;;5092597;28;20044;-65
2023/05/22 02:09:36;;;;;;;16.73;15.07;;;18.40;77.70;;;;;;5092281;28;20086;-66
2023/05/22 02:12:03;;;;;;;13.45;12.00;;;18.40;77.50;;;;;;5092440;28;20491;-66
2023/05/22 02:14:29;;;;;;;16.20;14.50;;;18.40;76.70;;;;;;5092355;28;20036;-66
2023/05/22 02:16:55;;;;;;;14.93;13.43;;;18.40;76.40;;;;;;5075215;28;20164;-65
2023/05/22 02:19:21;;;;;;;13.80;12.50;;;18.40;76.40;;;;;;5092188;28;20177;-65
2023/05/22 02:21:47;;;;;;;14.23;12.82;;;18.40;76.70;;;;;;5075390;28;20554;-66
2023/05/22 02:24:12;;;;;;;14.88;13.40;;;18.40;75.90;;;;;;5092392;28;20115;-66
2023/05/22 02:26:38;;;;;;;18.88;16.92;;;18.40;75.60;;;;;;5092014;28;20062;-65
2023/05/22 02:29:05;;;;;;;23.38;20.27;;;18.50;75.80;;;;;;5075491;28;20043;-65
2023/05/22 02:31:30;;;;;;;19.95;17.60;;;18.40;76.20;;;;;;5091891;28;20043;-66
2023/05/22 02:33:56;;;;;;;20.75;18.67;;;18.50;76.60;;;;;;5092097;28;20047;-66
2023/05/22 02:36:22;;;;;;;24.95;22.35;;;18.50;76.60;;;;;;5075013;28;20044;-65
2023/05/22 02:38:48;;;;;;;20.77;18.73;;;18.50;77.00;;;;;;5091870;28;20093;-66
2023/05/22 02:41:14;;;;;;;18.80;16.98;;;18.50;77.20;;;;;;5075169;28;20048;-66
2023/05/22 02:43:40;;;;;;;19.83;17.73;;;18.50;77.00;;;;;;5091490;28;20149;-66
2023/05/22 02:46:05;;;;;;;26.90;24.13;;;18.50;76.80;;;;;;5091483;28;20051;-66
2023/05/22 02:48:31;;;;;;;25.77;23.20;;;18.40;77.40;;;;;;5092087;28;20044;-66
2023/05/22 02:50:57;;;;;;;19.77;17.85;;;18.50;78.00;;;;;;5091824;28;20507;-65
2023/05/22 02:53:22;;;;;;;23.63;20.95;;;18.40;78.10;;;;;;5091452;28;20121;-66
2023/05/22 02:55:48;;;;;;;23.42;20.80;;;18.40;78.10;;;;;;5074724;28;20044;-66
2023/05/22 02:58:14;;;;;;;14.75;13.25;;;18.40;78.20;;;;;;5091506;28;20142;-66
2023/05/22 03:00:40;;;;;;;21.13;18.90;;;18.40;77.80;;;;;;5091465;28;20115;-66
2023/05/22 03:03:06;;;;;;;14.70;13.23;;;18.40;77.70;;;;;;5092040;28;20100;-66
2023/05/22 03:05:32;;;;;;;13.57;12.27;;;18.40;77.50;;;;;;5091613;28;20491;-66
2023/05/22 03:07:58;;;;;;;13.30;11.57;;;18.40;76.60;;;;;;5091616;28;20092;-66
2023/05/22 03:10:24;;;;;;;12.68;11.40;;;18.30;76.00;;;;;;5091160;28;20048;-66
2023/05/22 03:12:53;;;;;;;13.07;11.77;;;18.30;75.50;;;;;;5073922;28;20119;-66
2023/05/22 03:15:18;;;;;;;13.80;12.40;;;18.30;75.10;;;;;;5090865;28;20051;-66
2023/05/22 03:17:45;;;;;;;16.00;14.40;;;18.30;75.10;;;;;;5091260;28;20054;-66
2023/05/22 03:20:15;;;;;;;15.45;13.95;;;18.40;74.80;;;;;;5091509;28;20537;-66
2023/05/22 03:22:43;;;;;;;14.70;13.20;;;18.40;74.80;;;;;;5091427;28;20036;-66
2023/05/22 03:25:09;;;;;;;17.42;15.45;;;18.40;74.80;;;;;;5091091;28;20036;-66
2023/05/22 03:27:35;;;;;;;15.18;13.68;;;18.40;74.60;;;;;;5091266;28;20040;-66
2023/05/22 03:30:02;;;;;;;16.75;14.95;;;18.40;74.50;;;;;;5091203;28;20044;-66
2023/05/22 03:32:28;;;;;;;16.88;14.93;;;18.40;74.40;;;;;;5091115;28;20044;-66
2023/05/22 03:34:54;;;;;;;17.23;15.52;;;18.40;74.60;;;;;;5091085;28;20094;-66
2023/05/22 03:37:19;;;;;;;21.35;19.10;;;18.40;74.60;;;;;;5091310;28;20456;-66
2023/05/22 03:39:45;;;;;;;17.98;16.08;;;18.40;74.90;;;;;;5091152;28;20048;-66
2023/05/22 03:42:12;;;;;;;23.67;21.25;;;18.50;75.20;;;;;;5091069;28;20372;-66
2023/05/22 03:44:38;;;;;;;24.48;22.08;;;18.50;75.70;;;;;;5074631;28;20071;-66
2023/05/22 03:47:04;;;;;;;18.55;16.63;;;18.50;76.10;;;;;;5074168;28;20037;-66
2023/05/22 03:49:30;;;;;;;17.55;15.57;;;18.50;76.00;;;;;;5057529;28;20031;-66
2023/05/22 03:51:56;;;;;;;14.85;13.45;;;18.50;76.10;;;;;;5091292;28;20154;-66
2023/05/22 03:54:21;;;;;;;23.25;20.80;;;18.40;75.70;;;;;;5074601;28;20523;-66
2023/05/22 03:56:47;;;;;;;15.43;13.95;;;18.40;75.70;;;;;;5091179;28;20541;-66
2023/05/22 03:59:13;;;;;;;17.55;15.85;;;18.50;75.60;;;;;;5090964;28;20403;-66
2023/05/22 04:01:38;;;;;;;15.27;13.80;;;18.50;75.30;;;;;;5091064;28;20083;-66
2023/05/22 04:04:04;;;;;;;15.18;13.68;;;18.40;75.00;;;;;;5090991;28;20043;-66
2023/05/22 04:06:31;;;;;;;16.63;14.93;;;18.40;74.60;;;;;;5091589;28;20602;-66
2023/05/22 04:08:58;;;;;;;18.25;16.48;;;18.40;74.40;;;;;;5091044;28;20055;-71
2023/05/22 04:11:24;;;;;;;15.32;13.82;;;18.40;74.40;;;;;;5090984;28;20055;-71
2023/05/22 04:13:49;;;;;;;15.30;13.80;;;18.50;74.10;;;;;;5074424;28;20044;-71
2023/05/22 04:16:16;;;;;;;13.48;12.18;;;18.50;73.70;;;;;;5090589;28;20047;-71
2023/05/22 04:18:42;;;;;;;14.63;13.13;;;18.50;73.70;;;;;;5090866;28;20517;-66
2023/05/22 04:21:08;;;;;;;16.15;14.50;;;18.50;73.80;;;;;;5073911;28;20038;-66
2023/05/22 04:23:34;;;;;;;15.75;14.05;;;18.50;73.80;;;;;;5091216;28;20388;-66
2023/05/22 04:26:01;;;;;;;18.52;16.63;;;18.50;73.90;;;;;;5095685;28;20036;-66
2023/05/22 04:28:29;;;;;;;18.67;16.77;;;18.50;73.80;;;;;;5094509;28;20048;-66
2023/05/22 04:30:56;;;;;;;17.40;14.70;;;18.50;74.10;;;;;;5094100;28;20044;-66
2023/05/22 04:33:23;;;;;;;14.23;12.82;;;18.50;74.10;;;;;;5077151;28;20040;-66
2023/05/22 04:35:50;;;;;;;15.77;14.27;;;18.50;73.90;;;;;;5076743;28;20488;-66
2023/05/22 04:38:17;;;;;;;14.30;12.95;;;18.50;73.90;;;;;;5093188;28;20491;-66
2023/05/22 04:40:43;;;;;;;16.33;14.73;;;18.50;73.90;;;;;;5077460;28;20142;-66
2023/05/22 04:43:11;;;;;;;16.45;14.82;;;18.50;73.90;;;;;;5094397;28;20047;-66
2023/05/22 04:45:38;;;;;;;16.08;14.55;;;18.50;74.10;;;;;;5060672;28;20043;-66
2023/05/22 04:48:04;;;;;;;16.33;14.60;;;18.50;74.00;;;;;;5093887;28;20052;-66
2023/05/22 04:50:31;;;;;;;17.90;16.00;;;18.50;74.40;;;;;;5094333;28;20120;-66
2023/05/22 04:53:02;;;;;;;19.42;17.38;;;18.50;74.20;;;;;;5093970;28;20127;-66
2023/05/22 04:55:32;;;;;;;17.70;15.98;;;18.50;74.40;;;;;;5076165;28;20043;-66
2023/05/22 04:57:58;;;;;;;18.02;16.02;;;18.50;74.10;;;;;;5076287;28;20040;-67
2023/05/22 05:00:27;;;;;;;17.00;15.30;;;18.50;74.10;;;;;;5093268;28;20040;-66
2023/05/22 05:02:53;;;;;;;20.45;18.27;;;18.50;74.20;;;;;;5060302;28;20048;-66
2023/05/22 05:05:19;;;;;;;22.75;20.52;;;18.50;74.70;;;;;;5093464;28;20024;-67
2023/05/22 05:07:47;;;;;;;17.38;15.73;;;18.50;75.00;;;;;;5091384;28;20043;-67
2023/05/22 05:10:13;;;;;;;22.05;19.75;;;18.50;74.90;;;;;;5092661;28;20032;-67
2023/05/22 05:12:39;;;;;;;23.98;21.55;;;18.50;75.10;;;;;;5075743;28;20521;-67
2023/05/22 05:15:05;;;;;;;25.40;22.75;;;18.50;75.10;;;;;;5076299;28;20044;-68
2023/05/22 05:17:31;;;;;;;27.55;24.85;;;18.50;75.60;;;;;;5076790;28;20169;-68
2023/05/22 05:19:57;;;;;;;27.65;24.65;;;18.50;76.00;;;;;;5093133;28;20048;-68
2023/05/22 05:22:22;;;;;;;26.85;24.25;;;18.50;76.30;;;;;;5093112;28;20043;-67
2023/05/22 05:24:48;;;;;;;26.13;23.60;;;18.50;76.50;;;;;;5076120;28;20043;-68
2023/05/22 05:27:14;;;;;;;28.33;25.35;;;18.50;76.70;;;;;;5076384;28;20032;-68
2023/05/22 05:29:40;;;;;;;27.35;24.58;;;18.60;77.20;;;;;;5092765;28;20043;-67
2023/05/22 05:32:06;;;;;;;25.50;22.98;;;18.60;77.30;;;;;;5093255;28;20063;-68
2023/05/22 05:34:31;;;;;;;25.63;22.92;;;18.50;77.30;;;;;;5093167;28;20042;-67
2023/05/22 05:36:57;;;;;;;25.70;23.00;;;18.50;77.40;;;;;;5092427;28;20114;-67
2023/05/22 05:39:23;;;;;;;26.65;23.95;;;18.50;77.40;;;;;;5092884;28;20048;-67
2023/05/22 05:41:49;;;;;;;24.98;22.58;;;18.60;77.60;;;;;;5093594;28;20048;-73
2023/05/22 05:44:15;;;;;;;28.48;25.63;;;18.50;77.60;;;;;;5093121;28;20076;-72
2023/05/22 05:46:40;;;;;;;31.10;27.90;;;18.60;77.70;;;;;;5092548;28;20476;-72
2023/05/22 05:49:08;;;;;;;28.05;24.45;;;18.60;78.10;;;;;;5075517;28;20048;-72
2023/05/22 05:51:35;;;;;;;28.20;25.33;;;18.60;78.10;;;;;;5092667;28;20090;-72
2023/05/22 05:54:00;;;;;;;28.45;25.52;;;18.60;78.30;;;;;;5075225;28;20548;-73
2023/05/22 05:56:26;;;;;;;28.23;25.52;;;18.60;78.40;;;;;;5092647;28;20043;-72
2023/05/22 05:58:52;;;;;;;30.88;27.58;;;18.60;78.50;;;;;;5092483;28;20126;-72
2023/05/22 06:01:18;;;;;;;29.27;26.38;;;18.60;78.70;;;;;;5075807;28;20040;-72
2023/05/22 06:03:44;;;;;;;29.33;26.40;;;18.60;78.90;;;;;;5092486;28;20044;-72
2023/05/22 06:06:10;;;;;;;29.50;26.63;;;18.60;79.10;;;;;;5092785;28;20506;-72
2023/05/22 06:08:36;;;;;;;29.48;26.50;;;18.50;79.10;;;;;;5075524;28;20085;-72
2023/05/22 06:11:02;;;;;;;30.40;26.98;;;18.50;79.20;;;;;;5092618;28;20128;-73
2023/05/22 06:13:28;;;;;;;29.77;26.92;;;18.50;79.40;;;;;;5092590;28;20527;-72
2023/05/22 06:15:54;;;;;;;29.00;26.02;;;18.50;79.40;;;;;;5055424;28;20499;-73
2023/05/22 06:18:20;;;;;;;30.77;27.48;;;18.50;79.60;;;;;;5075766;28;20125;-73
2023/05/22 06:20:45;;;;;;;32.13;28.20;;;18.50;79.70;;;;;;5092251;28;20495;-72
2023/05/22 06:23:11;;;;;;;31.63;28.08;;;18.50;80.00;;;;;;5092002;28;20050;-73
2023/05/22 06:25:38;;;;;;;29.25;26.25;;;18.50;80.00;;;;;;5092082;28;20044;-73
2023/05/22 06:28:05;;;;;;;29.50;25.98;;;18.50;80.00;;;;;;5092254;28;20086;-72
2023/05/22 06:30:30;;;;;;;27.60;24.52;;;18.50;80.10;;;;;;5092132;28;20559;-72
2023/05/22 06:32:56;;;;;;;27.10;23.67;;;18.50;80.20;;;;;;5092031;28;20151;-72
2023/05/22 06:35:22;;;;;;;24.40;21.77;;;18.50;80.10;;;;;;5091497;28;20127;-72
2023/05/22 06:37:48;;;;;;;24.48;22.02;;;18.50;80.00;;;;;;5091798;28;20040;-72
2023/05/22 06:40:14;;;;;;;22.25;19.23;;;18.50;80.10;;;;;;5091849;28;20056;-72
2023/05/22 06:42:42;;;;;;;25.98;19.98;;;18.50;80.20;;;;;;5091923;28;20036;-72
2023/05/22 06:45:08;;;;;;;20.80;17.33;;;18.60;80.60;;;;;;5091887;28;20040;-72
2023/05/22 06:47:34;;;;;;;22.33;17.83;;;18.60;80.90;;;;;;5074860;28;20123;-72
2023/05/22 06:49:59;;;;;;;20.90;16.27;;;18.70;81.20;;;;;;5091867;28;20131;-72
2023/05/22 06:52:25;;;;;;;20.20;14.93;;;18.90;80.70;;;;;;5091114;28;20127;-72
2023/05/22 06:54:51;;;;;;;16.85;14.27;;;19.00;80.20;;;;;;5074487;28;20567;-72
2023/05/22 06:57:17;;;;;;;20.80;13.95;;;19.10;79.90;;;;;;5091113;28;20089;-72
2023/05/22 06:59:42;;;;;;;18.30;12.98;;;19.10;79.40;;;;;;5058216;28;20100;-72
2023/05/22 07:02:08;;;;;;;22.02;12.20;;;19.20;78.60;;;;;;5074910;28;20048;-72
2023/05/22 07:04:34;;;;;;;17.50;12.27;;;19.30;78.20;;;;;;5091556;28;20040;-72
2023/05/22 07:07:00;;;;;;;17.55;12.32;;;19.30;78.00;;;;;;5091188;28;20036;-72
2023/05/22 07:09:25;;;;;;;17.48;12.32;;;19.40;77.40;;;;;;5075018;28;20070;-72
2023/05/22 07:11:51;;;;;;;21.65;12.25;;;19.40;76.90;;;;;;5075028;28;20043;-72
2023/05/22 07:14:17;;;;;;;18.30;13.02;;;19.40;76.70;;;;;;5057793;28;20532;-72
2023/05/22 07:16:43;;;;;;;19.95;12.25;;;19.50;76.50;;;;;;5091242;28;20052;-72
2023/05/22 07:19:10;;;;;;;20.92;12.48;;;19.40;76.40;;;;;;5091440;28;20044;-72
2023/05/22 07:21:36;;;;;;;19.85;14.55;;;19.50;76.40;;;;;;5074292;28;20042;-72
2023/05/22 07:24:06;;;;;;;19.05;13.25;;;19.50;75.90;;;;;;5074544;28;20044;-72
2023/05/22 07:26:36;;;;;;;15.90;11.65;;;19.50;75.70;;;;;;5091371;28;20059;-72
2023/05/22 07:29:03;;;;;;;14.10;11.85;;;19.50;75.80;;;;;;5091619;28;20036;-72
2023/05/22 07:31:30;;;;;;;16.90;12.18;;;19.50;75.80;;;;;;5074286;28;20036;-73
2023/05/22 07:33:56;;;;;;;15.32;12.82;;;19.50;75.60;;;;;;5091267;28;20394;-72
2023/05/22 07:36:22;;;;;;;16.25;12.15;;;19.50;75.80;;;;;;5091625;28;20462;-72
2023/05/22 07:38:47;;;;;;;15.75;11.93;;;19.50;75.50;;;;;;5090850;28;20044;-72
2023/05/22 07:41:13;;;;;;;18.58;13.07;;;19.50;75.50;;;;;;5091054;28;20043;-72
2023/05/22 07:43:39;;;;;;;18.90;12.60;;;19.50;75.40;;;;;;5073946;28;20040;-72
2023/05/22 07:46:08;;;;;;;15.13;10.73;;;19.50;75.20;;;;;;5091148;28;20074;-72
2023/05/22 07:48:33;;;;;;;17.05;11.45;;;19.50;75.20;;;;;;5090691;28;20040;-72
2023/05/22 07:50:59;;;;;;;19.15;11.00;;;19.50;75.30;;;;;;5091412;28;20130;-72
2023/05/22 07:53:25;;;;;;;14.73;9.77;;;19.40;75.50;;;;;;5091010;28;20479;-72
2023/05/22 07:55:51;;;;;;;13.18;9.68;;;19.40;75.60;;;;;;5125511;28;20048;-72
2023/05/22 07:58:16;;;;;;;13.25;9.30;;;19.40;75.70;;;;;;5057635;28;20044;-72
2023/05/22 08:00:42;;;;;;;15.40;10.02;;;19.40;76.30;;;;;;5111968;28;20131;-72
2023/05/22 08:03:07;;;;;;;13.18;9.25;;;19.50;76.30;;;;;;5077691;28;20066;-72
2023/05/22 08:05:33;;;;;;;12.85;8.90;;;19.50;76.20;;;;;;5095163;28;20047;-71
2023/05/22 08:07:59;;;;;;;11.15;8.35;;;19.50;75.80;;;;;;5094378;28;20032;-70
2023/05/22 08:10:25;;;;;;;12.13;8.90;;;19.50;75.80;;;;;;5094825;28;20075;-70
2023/05/22 08:12:51;;;;;;;12.32;9.65;;;19.60;75.80;;;;;;5094622;28;20048;-71
2023/05/22 08:15:16;;;;;;;18.20;9.80;;;19.60;75.40;;;;;;5094981;28;20048;-71
2023/05/22 08:17:42;;;;;;;14.15;8.48;;;19.60;75.40;;;;;;5094326;28;20104;-71
2023/05/22 08:20:08;;;;;;;13.93;9.48;;;19.60;75.20;;;;;;5128940;27;20052;-72
2023/05/22 08:22:34;;;;;;;13.95;8.52;;;19.70;75.10;;;;;;5123331;27;20048;-72
2023/05/22 08:25:00;;;;;;;13.13;8.30;;;19.70;74.90;;;;;;5120039;27;20395;-72
2023/05/22 08:27:25;;;;;;;12.38;8.15;;;19.70;74.80;;;;;;5077026;28;20034;-73
2023/05/22 08:29:51;;;;;;;15.30;9.00;;;19.70;75.00;;;;;;5093810;28;20040;-72
2023/05/22 08:32:17;;;;;;;12.15;8.25;;;19.80;74.80;;;;;;5126649;27;20089;-72
2023/05/22 08:34:44;;;;;;;13.40;7.90;;;19.80;74.60;;;;;;5094210;28;20066;-73
2023/05/22 08:37:11;;;;;;;10.85;8.25;;;19.80;74.40;;;;;;5093802;28;20063;-72
2023/05/22 08:39:37;;;;;;;14.18;8.10;;;19.90;74.30;;;;;;5075662;28;20080;-72
2023/05/22 08:42:04;;;;;;;11.85;8.38;;;19.90;74.10;;;;;;5118028;27;20091;-72
2023/05/22 08:44:29;;;;;;;12.07;8.80;;;19.90;73.90;;;;;;5093666;28;20032;-73
2023/05/22 08:46:58;;;;;;;14.30;8.30;;;19.90;74.10;;;;;;5119400;27;20372;-72
2023/05/22 08:49:24;;;;;;;13.38;8.45;;;20.00;75.20;;;;;;5113604;27;20043;-68
2023/05/22 08:51:56;;;;;;;11.85;8.20;;;20.20;75.00;;;;;;5114364;27;20036;-67
2023/05/22 08:54:25;;;;;;;14.48;9.15;;;20.30;74.40;;;;;;5114547;27;20040;-67
2023/05/22 08:56:52;;;;;;;17.10;8.82;;;20.50;74.40;;;;;;5128263;27;20047;-72
2023/05/22 08:59:19;;;;;;;12.32;8.57;;;20.60;74.30;;;;;;5119044;27;20037;-67
2023/05/22 09:01:46;;;;;;;13.00;8.80;;;20.70;73.40;;;;;;5093182;28;20104;-73
2023/05/22 09:04:12;;;;;;;15.15;9.20;;;20.80;72.80;;;;;;5076729;28;20415;-73
2023/05/22 09:06:38;;;;;;;17.77;8.85;;;20.90;73.20;;;;;;5093543;28;20036;-72
2023/05/22 09:09:04;;;;;;;15.30;9.43;;;21.10;73.10;;;;;;5121454;27;20054;-67
2023/05/22 09:11:30;;;;;;;13.13;9.15;;;21.20;72.20;;;;;;5091763;28;20435;-67
2023/05/22 09:14:11;;;;;;;13.13;9.60;;;21.40;71.50;;;;;;5092999;28;20122;-67
2023/05/22 09:16:50;;;;;;;13.10;9.25;;;21.50;70.70;;;;;;5118651;27;20076;-68
2023/05/22 09:19:16;;;;;;;15.20;8.98;;;21.70;70.60;;;;;;5092315;28;20052;-73
2023/05/22 09:21:46;;;;;;;14.48;10.77;;;21.90;70.60;;;;;;5092667;28;20376;-73
2023/05/22 09:24:12;;;;;;;11.27;9.13;;;22.10;69.20;;;;;;5093434;28;20395;-73
2023/05/22 09:26:38;;;;;;;15.10;11.18;;;22.20;67.30;;;;;;5075964;28;20093;-73
2023/05/22 09:29:07;;;;;;;12.35;10.27;;;22.40;67.40;;;;;;5076544;28;20036;-74
2023/05/22 09:31:40;;;;;;;19.13;10.98;;;22.50;66.70;;;;;;5093175;28;20052;-74
2023/05/22 09:34:07;;;;;;;12.52;10.45;;;22.60;66.70;;;;;;5093098;28;20056;-73
2023/05/22 09:36:34;;;;;;;13.18;10.70;;;22.80;65.70;;;;;;5057888;28;20041;-73
2023/05/22 09:39:01;;;;;;;13.32;10.30;;;22.90;64.70;;;;;;5092471;28;20083;-72
2023/05/22 09:41:30;;;;;;;14.05;9.60;;;23.00;64.30;;;;;;5093347;28;20048;-73
2023/05/22 09:43:56;;;;;;;15.75;10.05;;;23.10;64.80;;;;;;5076482;28;20036;-73
2023/05/22 09:46:22;;;;;;;14.18;11.18;;;23.30;64.30;;;;;;5093078;28;20032;-73
2023/05/22 09:48:54;;;;;;;14.93;9.93;;;23.40;63.20;;;;;;5092639;28;20114;-74
2023/05/22 09:51:25;;;;;;;16.73;10.75;;;23.60;62.90;;;;;;5092270;28;20044;-73
2023/05/22 09:53:57;;;;;;;14.95;11.18;;;23.70;62.80;;;;;;5092757;28;20495;-73
2023/05/22 09:56:25;;;;;;;15.43;10.45;;;23.80;62.20;;;;;;5092765;28;20048;-73
2023/05/22 09:58:51;;;;;;;13.80;10.90;;;23.90;61.90;;;;;;5093969;28;20485;-73
2023/05/22 10:01:20;;;;;;;12.90;9.15;;;24.10;61.50;;;;;;5092659;28;20044;-73
2023/05/22 10:03:48;;;;;;;12.93;10.20;;;24.30;61.80;;;;;;5092507;28;20040;-73
2023/05/22 10:06:17;;;;;;;11.85;10.65;;;24.40;62.60;;;;;;5092585;28;20093;-73
2023/05/22 10:08:49;;;;;;;13.18;11.00;;;24.50;60.60;;;;;;5092521;28;20364;-74
2023/05/22 10:11:16;;;;;;;14.13;11.65;;;24.60;59.50;;;;;;5092682;28;20078;-73
2023/05/22 10:13:42;;;;;;;12.88;10.30;;;24.70;59.60;;;;;;5092321;28;20122;-73
2023/05/22 10:16:10;;;;;;;13.43;10.82;;;24.80;59.40;;;;;;5092535;28;20444;-73
2023/05/22 10:18:37;;;;;;;13.60;10.50;;;25.00;58.40;;;;;;5075450;28;20052;-73
2023/05/22 10:21:03;;;;;;;12.20;10.82;;;25.10;58.50;;;;;;5092113;28;20123;-73
2023/05/22 10:23:29;;;;;;;12.18;10.90;;;25.10;57.50;;;;;;5092149;28;20036;-73
2023/05/22 10:25:56;;;;;;;13.20;10.73;;;25.30;57.50;;;;;;5075324;28;20126;-73
2023/05/22 10:28:29;;;;;;;12.63;11.10;;;25.40;57.40;;;;;;5093551;28;20487;-73
2023/05/22 10:31:05;;;;;;;15.27;11.63;;;25.40;56.30;;;;;;5092186;28;20097;-73
2023/05/22 10:33:45;;;;;;;12.43;10.75;;;25.50;56.20;;;;;;5092360;28;20054;-73
2023/05/22 10:36:23;;;;;;;13.30;10.48;;;25.60;56.90;;;;;;5093421;28;20072;-73
2023/05/22 10:38:54;;;;;;;12.57;10.38;;;25.70;56.10;;;;;;5074902;28;20476;-72
2023/05/22 10:41:22;;;;;;;14.73;10.52;;;25.70;56.00;;;;;;5091924;28;20052;-73
2023/05/22 10:43:49;;;;;;;11.90;10.70;;;25.70;56.30;;;;;;5091747;28;20495;-73
2023/05/22 10:46:15;;;;;;;12.65;11.25;;;25.80;55.50;;;;;;5075335;28;20126;-73
2023/05/22 10:48:47;;;;;;;13.90;10.60;;;25.80;54.60;;;;;;5091901;28;20043;-73
2023/05/22 10:51:15;;;;;;;13.50;10.32;;;25.90;55.10;;;;;;5074824;28;20152;-73
2023/05/22 10:53:46;;;;;;;13.20;11.15;;;25.90;54.80;;;;;;5092136;28;20127;-74
2023/05/22 10:56:14;;;;;;;13.13;11.52;;;26.00;53.70;;;;;;5091851;28;20040;-73
2023/05/22 10:58:54;;;;;;;12.13;10.75;;;26.00;53.70;;;;;;5091192;28;20040;-73
2023/05/22 11:01:23;;;;;;;12.27;10.98;;;26.00;53.20;;;;;;5091733;28;20044;-73
2023/05/22 11:04:11;;;;;;;11.93;10.70;;;25.90;53.80;;;;;;5091674;28;20048;-74
2023/05/22 11:06:45;;;;;;;12.60;10.75;;;25.90;54.60;;;;;;5091949;28;20044;-73
2023/05/22 11:09:27;;;;;;;;;;;25.80;54.50;;;;;;5075342;28;20560;-73
2023/05/22 11:12:19;;;;;;;14.02;11.90;;;25.70;55.10;;;;;;5091870;28;19922;-73
2023/05/22 11:14:56;;;;;;;12.90;11.52;;;25.70;55.20;;;;;;5091514;28;20348;-74
2023/05/22 11:17:27;;;;;;;14.20;12.77;;;25.60;55.20;;;;;;5091745;28;20042;-73
2023/05/22 11:20:00;;;;;;;13.48;12.02;;;25.70;55.40;;;;;;5091448;28;20044;-73
2023/05/22 11:22:40;;;;;;;13.75;12.52;;;25.70;56.10;;;;;;5091218;28;20040;-73
2023/05/22 11:25:07;;;;;;;14.52;12.52;;;25.70;56.10;;;;;;5091444;28;20036;-73
2023/05/22 11:27:35;;;;;;;18.45;13.55;;;25.70;56.30;;;;;;5091692;28;20431;-73
2023/05/22 11:30:01;;;;;;;16.02;13.10;;;25.80;55.80;;;;;;5074540;28;20044;-67
2023/05/22 11:32:28;;;;;;;14.73;13.15;;;25.80;55.00;;;;;;5091635;28;20155;-67
2023/05/22 11:34:57;;;;;;;18.38;13.18;;;25.80;54.70;;;;;;5094013;28;20544;-68
2023/05/22 11:37:23;;;;;;;14.75;13.25;;;25.90;56.10;;;;;;5095765;28;20383;-68
2023/05/22 11:39:51;;;;;;;17.15;13.70;;;25.90;57.00;;;;;;5095281;28;20040;-68
2023/05/22 11:42:20;;;;;;;14.98;12.40;;;25.90;55.50;;;;;;5095247;28;20160;-68
2023/05/22 11:44:45;;;;;;;14.98;13.48;;;26.00;56.00;;;;;;5078408;28;20074;-68
2023/05/22 11:47:11;;;;;;;14.45;12.95;;;26.10;55.20;;;;;;5095281;28;20044;-68
2023/05/22 11:49:37;;;;;;;14.25;12.95;;;26.10;55.50;;;;;;5078542;28;20127;-68
2023/05/22 11:52:05;;;;;;;13.70;12.27;;;26.20;55.60;;;;;;5095179;28;20051;-68
2023/05/22 11:54:31;;;;;;;14.38;12.80;;;26.30;55.60;;;;;;5095259;28;20044;-68
2023/05/22 11:56:57;;;;;;;14.77;12.23;;;26.30;54.30;;;;;;5096527;28;20098;-68
2023/05/22 11:59:23;;;;;;;13.82;12.40;;;26.40;53.90;;;;;;5094854;28;20060;-68
2023/05/22 12:01:52;;;;;;;14.55;12.38;;;26.60;54.00;;;;;;5095091;28;20032;-68
2023/05/22 12:04:17;;;;;;;13.77;12.48;;;26.70;54.00;;;;;;5078371;28;20380;-67
2023/05/22 12:06:43;;;;;;;13.45;12.00;;;26.80;53.60;;;;;;5095240;28;20040;-67
2023/05/22 12:09:09;;;;;;;15.52;13.32;;;26.90;53.70;;;;;;5078342;28;20559;-67
2023/05/22 12:11:36;;;;;;;13.60;12.13;;;27.00;51.80;;;;;;5077981;28;20050;-68
2023/05/22 12:14:03;;;;;;;15.57;13.25;;;27.00;52.70;;;;;;5094852;28;20083;-66
2023/05/22 12:16:35;;;;;;;14.40;12.98;;;27.10;53.60;;;;;;5073908;28;20485;-67
2023/05/22 12:19:07;;;;;;;14.50;13.00;;;27.10;53.00;;;;;;5080510;28;20052;-67
2023/05/22 12:21:35;;;;;;;14.20;12.80;;;27.30;52.00;;;;;;5083241;28;20498;-67
2023/05/22 12:24:05;;;;;;;13.82;12.38;;;27.40;52.90;;;;;;5099364;28;21429;-67
2023/05/22 12:26:31;;;;;;;12.23;11.05;;;27.50;53.40;;;;;;5084820;28;20396;-67
2023/05/22 12:29:00;;;;;;;13.77;12.38;;;27.60;52.80;;;;;;5099060;28;20037;-67
2023/05/22 12:31:26;;;;;;;12.52;11.20;;;27.80;51.20;;;;;;5084835;28;20059;-67